createdAt,value
2018-06-27T00:00:22.099Z,0
2018-06-27T00:00:48.238Z,0
2018-06-27T00:01:14.378Z,0
2018-06-27T00:01:40.520Z,0
2018-06-27T00:02:06.661Z,0
2018-06-27T00:02:32.826Z,0
2018-06-27T00:02:58.958Z,0
2018-06-27T00:03:25.099Z,0
2018-06-27T00:03:51.237Z,0
2018-06-27T00:04:17.370Z,0
2018-06-27T00:04:43.517Z,0
2018-06-27T00:05:09.650Z,0
2018-06-27T00:05:35.792Z,0
2018-06-27T00:06:01.934Z,0
2018-06-27T00:06:28.091Z,0
2018-06-27T00:06:54.258Z,0
2018-06-27T00:07:20.398Z,0
2018-06-27T00:07:46.554Z,0
2018-06-27T00:08:12.697Z,0
2018-06-27T00:08:38.859Z,0
2018-06-27T00:09:05.083Z,0
2018-06-27T00:09:31.140Z,0
2018-06-27T00:09:57.275Z,0
2018-06-27T00:10:23.434Z,0
2018-06-27T00:10:49.573Z,0
2018-06-27T00:11:15.745Z,0
2018-06-27T00:11:41.897Z,0
2018-06-27T00:12:08.038Z,0
2018-06-27T00:12:34.179Z,0
2018-06-27T00:13:00.324Z,0
2018-06-27T00:13:26.458Z,0
2018-06-27T00:13:52.642Z,0
2018-06-27T00:14:18.783Z,0
2018-06-27T00:14:44.923Z,0
2018-06-27T00:15:11.065Z,0
2018-06-27T00:15:37.226Z,0
2018-06-27T00:16:03.367Z,0
2018-06-27T00:16:29.538Z,0
2018-06-27T00:16:55.674Z,0
2018-06-27T00:17:21.824Z,0
2018-06-27T00:17:47.958Z,0
2018-06-27T00:18:14.140Z,0
2018-06-27T00:18:40.280Z,0
2018-06-27T00:19:06.419Z,0
2018-06-27T00:19:32.556Z,0
2018-06-27T00:19:58.685Z,0
2018-06-27T00:20:24.827Z,0
2018-06-27T00:20:50.963Z,0
2018-06-27T00:21:17.128Z,0
2018-06-27T00:21:43.294Z,0
2018-06-27T00:22:09.437Z,0
2018-06-27T00:22:35.575Z,0
2018-06-27T00:23:01.741Z,0
2018-06-27T00:23:27.901Z,0
2018-06-27T00:23:54.069Z,0
2018-06-27T00:24:20.206Z,0
2018-06-27T00:24:46.392Z,0
2018-06-27T00:25:12.529Z,0
2018-06-27T00:25:38.673Z,0
2018-06-27T00:26:04.804Z,0
2018-06-27T00:26:30.974Z,0
2018-06-27T00:26:57.134Z,0
2018-06-27T00:27:23.281Z,0
2018-06-27T00:27:49.414Z,0
2018-06-27T00:28:15.582Z,0
2018-06-27T00:28:41.728Z,0
2018-06-27T00:29:07.860Z,0
2018-06-27T00:29:34.003Z,0
2018-06-27T00:30:00.142Z,0
2018-06-27T00:30:26.296Z,0
2018-06-27T00:30:52.438Z,0
2018-06-27T00:31:18.579Z,0
2018-06-27T00:31:44.715Z,0
2018-06-27T00:32:10.879Z,0
2018-06-27T00:32:37.018Z,0
2018-06-27T00:33:03.158Z,0
2018-06-27T00:33:29.320Z,0
2018-06-27T00:33:55.530Z,0
2018-06-27T00:34:21.602Z,0
2018-06-27T00:34:47.735Z,0
2018-06-27T00:35:13.878Z,0
2018-06-27T00:35:40.035Z,0
2018-06-27T00:36:06.201Z,0
2018-06-27T00:36:32.360Z,0
2018-06-27T00:36:58.504Z,0
2018-06-27T00:37:24.646Z,0
2018-06-27T00:37:50.786Z,0
2018-06-27T00:38:16.930Z,0
2018-06-27T00:38:43.128Z,0
2018-06-27T00:39:09.265Z,0
2018-06-27T00:39:35.405Z,0
2018-06-27T00:40:04.595Z,0
2018-06-27T00:40:30.757Z,0
2018-06-27T00:40:56.896Z,0
2018-06-27T00:41:23.085Z,0
2018-06-27T00:41:49.225Z,0
2018-06-27T00:42:15.360Z,0
2018-06-27T00:42:41.514Z,0
2018-06-27T00:43:07.679Z,0
2018-06-27T00:43:33.868Z,0
2018-06-27T00:44:00.052Z,0
2018-06-27T00:44:26.191Z,0
2018-06-27T00:44:52.382Z,0
2018-06-27T00:45:18.551Z,0
2018-06-27T00:45:44.702Z,0
2018-06-27T00:46:10.844Z,0
2018-06-27T00:46:36.998Z,0
2018-06-27T00:47:03.140Z,0
2018-06-27T00:47:29.280Z,0
2018-06-27T00:47:55.413Z,0
2018-06-27T00:48:21.547Z,0
2018-06-27T00:48:47.692Z,0
2018-06-27T00:49:13.834Z,0
2018-06-27T00:49:39.981Z,0
2018-06-27T00:50:06.114Z,0
2018-06-27T00:50:32.284Z,0
2018-06-27T00:50:58.418Z,0
2018-06-27T00:51:24.592Z,0
2018-06-27T00:51:50.753Z,0
2018-06-27T00:52:16.898Z,0
2018-06-27T00:52:43.033Z,0
2018-06-27T00:53:09.198Z,0
2018-06-27T00:53:35.337Z,0
2018-06-27T00:54:01.471Z,0
2018-06-27T00:54:27.612Z,0
2018-06-27T00:54:53.783Z,0
2018-06-27T00:55:19.925Z,0
2018-06-27T00:55:46.077Z,0
2018-06-27T00:56:12.229Z,0
2018-06-27T00:56:38.368Z,0
2018-06-27T00:57:04.504Z,0
2018-06-27T00:57:30.663Z,0
2018-06-27T00:57:56.804Z,0
2018-06-27T00:58:22.969Z,0
2018-06-27T00:58:49.107Z,0
2018-06-27T00:59:15.251Z,0
2018-06-27T00:59:41.388Z,0
2018-06-27T01:00:07.575Z,0
2018-06-27T01:00:33.718Z,0
2018-06-27T01:00:59.862Z,0
2018-06-27T01:01:25.996Z,0
2018-06-27T01:01:52.159Z,0
2018-06-27T01:02:18.343Z,0
2018-06-27T01:02:44.489Z,0
2018-06-27T01:03:10.621Z,0
2018-06-27T01:03:36.779Z,0
2018-06-27T01:04:02.914Z,0
2018-06-27T01:04:29.056Z,0
2018-06-27T01:04:55.209Z,0
2018-06-27T01:05:21.352Z,0
2018-06-27T01:05:47.498Z,0
2018-06-27T01:06:13.651Z,0
2018-06-27T01:06:39.788Z,0
2018-06-27T01:07:05.953Z,0
2018-06-27T01:07:32.086Z,0
2018-06-27T01:07:58.221Z,0
2018-06-27T01:08:24.361Z,0
2018-06-27T01:08:50.521Z,0
2018-06-27T01:09:16.683Z,0
2018-06-27T01:09:42.837Z,0
2018-06-27T01:10:08.974Z,0
2018-06-27T01:10:35.192Z,0
2018-06-27T01:11:01.295Z,0
2018-06-27T01:11:27.428Z,0
2018-06-27T01:11:53.567Z,0
2018-06-27T01:12:19.705Z,0
2018-06-27T01:12:45.845Z,0
2018-06-27T01:13:12.007Z,0
2018-06-27T01:13:38.145Z,0
2018-06-27T01:14:04.311Z,0
2018-06-27T01:14:30.440Z,0
2018-06-27T01:14:56.601Z,0
2018-06-27T01:15:22.771Z,0
2018-06-27T01:15:48.910Z,0
2018-06-27T01:16:15.052Z,0
2018-06-27T01:16:41.184Z,0
2018-06-27T01:17:07.327Z,0
2018-06-27T01:17:33.465Z,0
2018-06-27T01:17:59.602Z,0
2018-06-27T01:18:25.734Z,0
2018-06-27T01:18:51.878Z,0
2018-06-27T01:19:18.015Z,0
2018-06-27T01:19:44.179Z,0
2018-06-27T01:20:10.328Z,0
2018-06-27T01:20:36.460Z,0
2018-06-27T01:21:02.592Z,0
2018-06-27T01:21:28.738Z,0
2018-06-27T01:21:54.876Z,0
2018-06-27T01:22:21.037Z,0
2018-06-27T01:22:47.181Z,0
2018-06-27T01:23:13.316Z,0
2018-06-27T01:23:39.479Z,0
2018-06-27T01:24:05.615Z,0
2018-06-27T01:24:31.752Z,0
2018-06-27T01:24:57.885Z,0
2018-06-27T01:25:24.030Z,0
2018-06-27T01:25:50.172Z,0
2018-06-27T01:26:16.316Z,0
2018-06-27T01:26:42.446Z,0
2018-06-27T01:27:08.610Z,0
2018-06-27T01:27:34.740Z,0
2018-06-27T01:28:00.879Z,0
2018-06-27T01:28:27.015Z,0
2018-06-27T01:28:53.153Z,0
2018-06-27T01:29:19.299Z,0
2018-06-27T01:29:45.436Z,0
2018-06-27T01:30:11.571Z,0
2018-06-27T01:30:37.706Z,0
2018-06-27T01:31:03.851Z,0
2018-06-27T01:31:29.978Z,0
2018-06-27T01:31:56.123Z,0
2018-06-27T01:32:22.267Z,0
2018-06-27T01:32:48.406Z,0
2018-06-27T01:33:14.565Z,0
2018-06-27T01:33:40.705Z,0
2018-06-27T01:34:06.874Z,0
2018-06-27T01:34:33.033Z,0
2018-06-27T01:34:59.166Z,0
2018-06-27T01:35:25.310Z,0
2018-06-27T01:35:51.441Z,0
2018-06-27T01:36:17.582Z,0
2018-06-27T01:36:43.721Z,0
2018-06-27T01:37:09.862Z,0
2018-06-27T01:37:36.003Z,0
2018-06-27T01:38:02.142Z,0
2018-06-27T01:38:28.278Z,0
2018-06-27T01:38:54.441Z,0
2018-06-27T01:39:20.582Z,0
2018-06-27T01:39:46.716Z,0
2018-06-27T01:40:12.856Z,0
2018-06-27T01:40:38.995Z,0
2018-06-27T01:41:05.126Z,0
2018-06-27T01:41:31.274Z,0
2018-06-27T01:41:57.406Z,0
2018-06-27T01:42:23.547Z,0
2018-06-27T01:42:49.683Z,0
2018-06-27T01:43:15.819Z,0
2018-06-27T01:43:41.961Z,0
2018-06-27T01:44:08.094Z,0
2018-06-27T01:44:34.238Z,0
2018-06-27T01:45:00.380Z,0
2018-06-27T01:45:26.516Z,0
2018-06-27T01:45:52.705Z,0
2018-06-27T01:46:18.853Z,0
2018-06-27T01:46:44.990Z,0
2018-06-27T01:47:11.155Z,0
2018-06-27T01:47:37.288Z,0
2018-06-27T01:48:03.452Z,0
2018-06-27T01:48:29.585Z,0
2018-06-27T01:48:55.731Z,0
2018-06-27T01:49:21.860Z,0
2018-06-27T01:49:48.027Z,0
2018-06-27T01:50:14.188Z,0
2018-06-27T01:50:40.343Z,0
2018-06-27T01:51:06.481Z,0
2018-06-27T01:51:32.625Z,0
2018-06-27T01:51:58.774Z,0
2018-06-27T01:52:24.935Z,0
2018-06-27T01:52:51.073Z,0
2018-06-27T01:53:17.214Z,0
2018-06-27T01:53:43.350Z,0
2018-06-27T01:54:09.489Z,0
2018-06-27T01:54:35.637Z,0
2018-06-27T01:55:01.767Z,0
2018-06-27T01:55:27.906Z,0
2018-06-27T01:55:54.048Z,0
2018-06-27T01:56:20.186Z,0
2018-06-27T01:56:46.318Z,0
2018-06-27T01:57:12.461Z,0
2018-06-27T01:57:38.597Z,0
2018-06-27T01:58:04.736Z,0
2018-06-27T01:58:30.866Z,0
2018-06-27T01:58:57.011Z,0
2018-06-27T01:59:23.175Z,0
2018-06-27T01:59:49.314Z,0
2018-06-27T02:00:15.450Z,0
2018-06-27T02:00:41.590Z,0
2018-06-27T02:01:07.731Z,0
2018-06-27T02:01:33.865Z,0
2018-06-27T02:02:00.060Z,0
2018-06-27T02:02:26.165Z,0
2018-06-27T02:02:52.303Z,0
2018-06-27T02:03:18.443Z,0
2018-06-27T02:03:44.576Z,0
2018-06-27T02:04:10.738Z,0
2018-06-27T02:04:36.904Z,0
2018-06-27T02:05:03.044Z,0
2018-06-27T02:05:29.184Z,0
2018-06-27T02:05:55.319Z,0
2018-06-27T02:06:21.453Z,0
2018-06-27T02:06:47.593Z,0
2018-06-27T02:07:13.736Z,0
2018-06-27T02:07:39.897Z,0
2018-06-27T02:08:06.071Z,0
2018-06-27T02:08:32.198Z,0
2018-06-27T02:08:58.336Z,0
2018-06-27T02:09:24.476Z,0
2018-06-27T02:09:50.603Z,0
2018-06-27T02:10:16.740Z,0
2018-06-27T02:10:42.875Z,0
2018-06-27T02:11:09.013Z,0
2018-06-27T02:11:35.159Z,0
2018-06-27T02:12:01.288Z,0
2018-06-27T02:12:27.432Z,0
2018-06-27T02:12:53.595Z,0
2018-06-27T02:13:19.737Z,0
2018-06-27T02:13:45.873Z,0
2018-06-27T02:14:12.018Z,0
2018-06-27T02:14:38.163Z,0
2018-06-27T02:15:04.313Z,0
2018-06-27T02:15:30.451Z,0
2018-06-27T02:15:56.612Z,0
2018-06-27T02:16:22.776Z,0
2018-06-27T02:16:48.903Z,0
2018-06-27T02:17:15.045Z,0
2018-06-27T02:17:41.182Z,0
2018-06-27T02:18:07.314Z,0
2018-06-27T02:18:33.488Z,0
2018-06-27T02:18:59.627Z,0
2018-06-27T02:19:25.768Z,0
2018-06-27T02:19:51.904Z,0
2018-06-27T02:20:18.037Z,0
2018-06-27T02:20:44.199Z,0
2018-06-27T02:21:10.330Z,0
2018-06-27T02:21:36.471Z,0
2018-06-27T02:22:02.607Z,0
2018-06-27T02:22:28.747Z,0
2018-06-27T02:22:54.886Z,4
2018-06-27T02:23:21.027Z,4
2018-06-27T02:23:47.166Z,4
2018-06-27T02:24:13.323Z,4
2018-06-27T02:24:39.468Z,4
2018-06-27T02:25:05.605Z,4
2018-06-27T02:25:31.765Z,4
2018-06-27T02:25:57.910Z,4
2018-06-27T02:26:24.046Z,4
2018-06-27T02:26:50.214Z,0
2018-06-27T02:27:16.366Z,0
2018-06-27T02:27:42.525Z,0
2018-06-27T02:28:08.662Z,4
2018-06-27T02:28:34.799Z,4
2018-06-27T02:29:00.948Z,4
2018-06-27T02:29:27.109Z,4
2018-06-27T02:29:53.250Z,4
2018-06-27T02:30:19.419Z,4
2018-06-27T02:30:45.597Z,4
2018-06-27T02:31:11.735Z,8
2018-06-27T02:31:37.924Z,4
2018-06-27T02:32:04.062Z,4
2018-06-27T02:32:30.218Z,4
2018-06-27T02:32:56.367Z,4
2018-06-27T02:33:22.527Z,8
2018-06-27T02:33:48.692Z,8
2018-06-27T02:34:14.908Z,4
2018-06-27T02:34:41.067Z,8
2018-06-27T02:35:07.203Z,8
2018-06-27T02:35:33.371Z,8
2018-06-27T02:35:59.506Z,8
2018-06-27T02:36:25.696Z,8
2018-06-27T02:36:51.854Z,8
2018-06-27T02:37:17.983Z,12
2018-06-27T02:37:44.148Z,8
2018-06-27T02:38:10.286Z,12
2018-06-27T02:38:36.429Z,8
2018-06-27T02:39:02.561Z,12
2018-06-27T02:39:28.702Z,16
2018-06-27T02:39:54.880Z,12
2018-06-27T02:40:21.062Z,16
2018-06-27T02:40:47.229Z,16
2018-06-27T02:41:13.386Z,16
2018-06-27T02:41:39.518Z,16
2018-06-27T02:42:05.661Z,16
2018-06-27T02:42:31.864Z,20
2018-06-27T02:42:58.003Z,20
2018-06-27T02:43:24.186Z,20
2018-06-27T02:43:50.330Z,24
2018-06-27T02:44:16.495Z,24
2018-06-27T02:44:42.637Z,24
2018-06-27T02:45:08.774Z,28
2018-06-27T02:45:34.912Z,28
2018-06-27T02:46:01.080Z,28
2018-06-27T02:46:27.256Z,32
2018-06-27T02:46:53.399Z,32
2018-06-27T02:47:19.550Z,36
2018-06-27T02:47:45.736Z,32
2018-06-27T02:48:11.868Z,36
2018-06-27T02:48:38.036Z,40
2018-06-27T02:49:04.196Z,40
2018-06-27T02:49:30.339Z,40
2018-06-27T02:49:56.515Z,44
2018-06-27T02:50:22.617Z,48
2018-06-27T02:50:48.783Z,48
2018-06-27T02:51:14.920Z,52
2018-06-27T02:51:41.118Z,56
2018-06-27T02:52:07.257Z,56
2018-06-27T02:52:33.474Z,60
2018-06-27T02:52:59.610Z,64
2018-06-27T02:53:25.797Z,68
2018-06-27T02:53:51.911Z,68
2018-06-27T02:54:18.086Z,72
2018-06-27T02:54:44.220Z,76
2018-06-27T02:55:10.358Z,80
2018-06-27T02:55:36.511Z,84
2018-06-27T02:56:02.642Z,88
2018-06-27T02:56:28.772Z,88
2018-06-27T02:56:54.917Z,92
2018-06-27T02:57:21.051Z,96
2018-06-27T02:57:47.192Z,100
2018-06-27T02:58:13.348Z,108
2018-06-27T02:58:39.484Z,112
2018-06-27T02:59:05.623Z,116
2018-06-27T02:59:31.759Z,124
2018-06-27T02:59:57.943Z,128
2018-06-27T03:00:24.106Z,132
2018-06-27T03:00:50.276Z,136
2018-06-27T03:01:16.457Z,144
2018-06-27T03:01:42.637Z,148
2018-06-27T03:02:08.819Z,156
2018-06-27T03:02:35.097Z,160
2018-06-27T03:03:01.120Z,168
2018-06-27T03:03:27.307Z,176
2018-06-27T03:03:53.495Z,180
2018-06-27T03:04:19.658Z,188
2018-06-27T03:04:45.824Z,192
2018-06-27T03:05:11.954Z,200
2018-06-27T03:05:38.114Z,208
2018-06-27T03:06:04.275Z,216
2018-06-27T03:06:30.410Z,224
2018-06-27T03:06:56.579Z,232
2018-06-27T03:07:22.762Z,240
2018-06-27T03:07:48.919Z,252
2018-06-27T03:08:15.055Z,256
2018-06-27T03:08:41.208Z,268
2018-06-27T03:09:07.367Z,276
2018-06-27T03:09:33.520Z,288
2018-06-27T03:09:59.681Z,292
2018-06-27T03:10:25.869Z,304
2018-06-27T03:10:52.050Z,312
2018-06-27T03:11:18.235Z,320
2018-06-27T03:11:44.426Z,332
2018-06-27T03:12:10.681Z,340
2018-06-27T03:12:36.867Z,356
2018-06-27T03:13:03.026Z,364
2018-06-27T03:13:29.216Z,376
2018-06-27T03:13:55.377Z,388
2018-06-27T03:14:21.563Z,400
2018-06-27T03:14:47.730Z,412
2018-06-27T03:15:13.873Z,420
2018-06-27T03:15:40.037Z,432
2018-06-27T03:16:06.200Z,444
2018-06-27T03:16:32.361Z,456
2018-06-27T03:16:58.546Z,468
2018-06-27T03:17:24.708Z,484
2018-06-27T03:17:50.854Z,496
2018-06-27T03:18:16.992Z,508
2018-06-27T03:18:43.155Z,524
2018-06-27T03:19:09.324Z,540
2018-06-27T03:19:35.463Z,552
2018-06-27T03:20:01.597Z,564
2018-06-27T03:20:27.795Z,584
2018-06-27T03:20:53.874Z,596
2018-06-27T03:21:20.017Z,612
2018-06-27T03:21:46.153Z,628
2018-06-27T03:22:12.344Z,644
2018-06-27T03:22:38.477Z,660
2018-06-27T03:23:04.612Z,676
2018-06-27T03:23:30.753Z,692
2018-06-27T03:23:56.913Z,708
2018-06-27T03:24:23.054Z,728
2018-06-27T03:24:49.243Z,744
2018-06-27T03:25:15.483Z,760
2018-06-27T03:25:41.684Z,776
2018-06-27T03:26:08.010Z,796
2018-06-27T03:26:34.238Z,816
2018-06-27T03:27:00.489Z,832
2018-06-27T03:27:26.746Z,852
2018-06-27T03:27:52.960Z,868
2018-06-27T03:28:19.249Z,892
2018-06-27T03:28:45.436Z,908
2018-06-27T03:29:11.671Z,928
2018-06-27T03:29:37.855Z,948
2018-06-27T03:30:04.085Z,968
2018-06-27T03:30:30.251Z,984
2018-06-27T03:30:56.429Z,1008
2018-06-27T03:31:22.664Z,1028
2018-06-27T03:31:48.852Z,1052
2018-06-27T03:32:15.038Z,1068
2018-06-27T03:32:41.175Z,1092
2018-06-27T03:33:07.315Z,1112
2018-06-27T03:33:33.481Z,1132
2018-06-27T03:33:59.654Z,1156
2018-06-27T03:34:25.784Z,1180
2018-06-27T03:34:51.929Z,1204
2018-06-27T03:35:18.059Z,1228
2018-06-27T03:35:44.196Z,1248
2018-06-27T03:36:10.341Z,1272
2018-06-27T03:36:36.476Z,1296
2018-06-27T03:37:02.641Z,1320
2018-06-27T03:37:28.783Z,1340
2018-06-27T03:37:54.923Z,1368
2018-06-27T03:38:21.062Z,1392
2018-06-27T03:38:47.198Z,1412
2018-06-27T03:39:13.343Z,1436
2018-06-27T03:39:39.510Z,1460
2018-06-27T03:40:05.644Z,1484
2018-06-27T03:40:31.787Z,1512
2018-06-27T03:40:57.924Z,1536
2018-06-27T03:41:24.066Z,1560
2018-06-27T03:41:50.202Z,1584
2018-06-27T03:42:16.374Z,1612
2018-06-27T03:42:42.539Z,1632
2018-06-27T03:43:08.679Z,1660
2018-06-27T03:43:34.816Z,1684
2018-06-27T03:44:00.950Z,1712
2018-06-27T03:44:27.097Z,1740
2018-06-27T03:44:53.255Z,1760
2018-06-27T03:45:19.392Z,1788
2018-06-27T03:45:45.527Z,1812
2018-06-27T03:46:11.673Z,1836
2018-06-27T03:46:37.832Z,1860
2018-06-27T03:47:03.967Z,1892
2018-06-27T03:47:30.108Z,1916
2018-06-27T03:47:56.249Z,1944
2018-06-27T03:48:22.415Z,1972
2018-06-27T03:48:48.560Z,2004
2018-06-27T03:49:14.692Z,2028
2018-06-27T03:49:40.842Z,2052
2018-06-27T03:50:07.004Z,2084
2018-06-27T03:50:33.143Z,2112
2018-06-27T03:50:59.278Z,2140
2018-06-27T03:51:25.420Z,2168
2018-06-27T03:51:51.563Z,2200
2018-06-27T03:52:17.694Z,2228
2018-06-27T03:52:43.860Z,2260
2018-06-27T03:53:09.998Z,2288
2018-06-27T03:53:36.139Z,2316
2018-06-27T03:54:02.279Z,2344
2018-06-27T03:54:28.433Z,2372
2018-06-27T03:54:54.575Z,2404
2018-06-27T03:55:20.716Z,2440
2018-06-27T03:55:46.884Z,2472
2018-06-27T03:56:13.049Z,2504
2018-06-27T03:56:39.223Z,2532
2018-06-27T03:57:05.390Z,2556
2018-06-27T03:57:31.528Z,2580
2018-06-27T03:57:57.668Z,2616
2018-06-27T03:58:23.802Z,2644
2018-06-27T03:58:49.973Z,2680
2018-06-27T03:59:16.133Z,2716
2018-06-27T03:59:42.302Z,2748
2018-06-27T04:00:08.443Z,2776
2018-06-27T04:00:34.583Z,2808
2018-06-27T04:01:00.721Z,2836
2018-06-27T04:01:26.865Z,2868
2018-06-27T04:01:53.024Z,2896
2018-06-27T04:02:19.163Z,2932
2018-06-27T04:02:45.330Z,2960
2018-06-27T04:03:11.496Z,2992
2018-06-27T04:03:37.637Z,3024
2018-06-27T04:04:03.770Z,3060
2018-06-27T04:04:29.915Z,3088
2018-06-27T04:04:56.055Z,3120
2018-06-27T04:05:22.190Z,3148
2018-06-27T04:05:48.380Z,3180
2018-06-27T04:06:14.518Z,3212
2018-06-27T04:06:40.676Z,3244
2018-06-27T04:07:06.813Z,3288
2018-06-27T04:07:32.975Z,3320
2018-06-27T04:07:59.120Z,3348
2018-06-27T04:08:25.283Z,3376
2018-06-27T04:08:51.430Z,3404
2018-06-27T04:09:17.584Z,3436
2018-06-27T04:09:43.714Z,3468
2018-06-27T04:10:09.864Z,3508
2018-06-27T04:10:36.041Z,3544
2018-06-27T04:11:02.182Z,3576
2018-06-27T04:11:28.312Z,3608
2018-06-27T04:11:54.470Z,3644
2018-06-27T04:12:20.612Z,3680
2018-06-27T04:12:46.926Z,3720
2018-06-27T04:13:12.990Z,3752
2018-06-27T04:13:39.063Z,3784
2018-06-27T04:14:05.194Z,3808
2018-06-27T04:14:31.390Z,3840
2018-06-27T04:14:57.479Z,3868
2018-06-27T04:15:23.614Z,3896
2018-06-27T04:15:49.751Z,3892
2018-06-27T04:16:15.893Z,3944
2018-06-27T04:16:42.052Z,3996
2018-06-27T04:17:08.187Z,4032
2018-06-27T04:17:34.332Z,4060
2018-06-27T04:18:00.472Z,4088
2018-06-27T04:18:26.639Z,4128
2018-06-27T04:18:52.778Z,4172
2018-06-27T04:19:18.912Z,4220
2018-06-27T04:19:45.046Z,4264
2018-06-27T04:20:11.225Z,4296
2018-06-27T04:20:37.365Z,4316
2018-06-27T04:21:03.501Z,4340
2018-06-27T04:21:29.639Z,4368
2018-06-27T04:21:55.800Z,4392
2018-06-27T04:22:21.940Z,4424
2018-06-27T04:22:48.079Z,4472
2018-06-27T04:23:14.218Z,4528
2018-06-27T04:23:40.358Z,4568
2018-06-27T04:24:06.506Z,4600
2018-06-27T04:24:32.667Z,4632
2018-06-27T04:24:58.801Z,4660
2018-06-27T04:25:24.947Z,4688
2018-06-27T04:25:51.088Z,4720
2018-06-27T04:26:17.258Z,4760
2018-06-27T04:26:43.396Z,4812
2018-06-27T04:27:09.538Z,4872
2018-06-27T04:27:35.675Z,4928
2018-06-27T04:28:01.839Z,4980
2018-06-27T04:28:27.975Z,5032
2018-06-27T04:28:54.113Z,5076
2018-06-27T04:29:20.270Z,5116
2018-06-27T04:29:46.415Z,5144
2018-06-27T04:30:12.557Z,5172
2018-06-27T04:30:38.696Z,5192
2018-06-27T04:31:04.938Z,5216
2018-06-27T04:31:31.152Z,5276
2018-06-27T04:31:57.263Z,5372
2018-06-27T04:32:23.588Z,5476
2018-06-27T04:32:49.785Z,5612
2018-06-27T04:33:16.035Z,5728
2018-06-27T04:33:42.299Z,5840
2018-06-27T04:34:08.372Z,5948
2018-06-27T04:34:34.535Z,6100
2018-06-27T04:35:00.690Z,6204
2018-06-27T04:35:26.852Z,6160
2018-06-27T04:35:53.205Z,6088
2018-06-27T04:36:19.284Z,5952
2018-06-27T04:36:46.335Z,5920
2018-06-27T04:37:12.462Z,5988
2018-06-27T04:37:38.606Z,6140
2018-06-27T04:38:04.734Z,6204
2018-06-27T04:38:30.899Z,6208
2018-06-27T04:38:57.065Z,6248
2018-06-27T04:39:23.227Z,6320
2018-06-27T04:39:49.390Z,6360
2018-06-27T04:40:15.569Z,6488
2018-06-27T04:40:41.713Z,6944
2018-06-27T04:41:07.845Z,7888
2018-06-27T04:41:33.989Z,9072
2018-06-27T04:42:00.129Z,10348
2018-06-27T04:42:26.296Z,11684
2018-06-27T04:42:52.455Z,12876
2018-06-27T04:43:18.712Z,13292
2018-06-27T04:43:44.760Z,13168
2018-06-27T04:44:10.898Z,13348
2018-06-27T04:44:37.073Z,14016
2018-06-27T04:45:03.221Z,14368
2018-06-27T04:45:29.355Z,14688
2018-06-27T04:45:55.497Z,15328
2018-06-27T04:46:21.658Z,15008
2018-06-27T04:46:47.822Z,14816
2018-06-27T04:47:13.961Z,14752
2018-06-27T04:47:40.096Z,14848
2018-06-27T04:48:06.233Z,14848
2018-06-27T04:48:32.420Z,14944
2018-06-27T04:48:58.561Z,14752
2018-06-27T04:49:24.733Z,14592
2018-06-27T04:49:50.857Z,14912
2018-06-27T04:50:16.994Z,15552
2018-06-27T04:50:43.137Z,16128
2018-06-27T04:51:09.278Z,16864
2018-06-27T04:51:35.421Z,16128
2018-06-27T04:52:01.576Z,16928
2018-06-27T04:52:27.719Z,17184
2018-06-27T04:52:53.859Z,17664
2018-06-27T04:53:19.998Z,17952
2018-06-27T04:53:46.136Z,18272
2018-06-27T04:54:12.304Z,18432
2018-06-27T04:54:38.442Z,18816
2018-06-27T04:55:04.601Z,18880
2018-06-27T04:55:30.739Z,18880
2018-06-27T04:55:56.883Z,18880
2018-06-27T04:56:23.016Z,19104
2018-06-27T04:56:49.184Z,19264
2018-06-27T04:57:15.347Z,19648
2018-06-27T04:57:41.485Z,20000
2018-06-27T04:58:07.657Z,20000
2018-06-27T04:58:33.794Z,19424
2018-06-27T04:58:59.935Z,19392
2018-06-27T04:59:26.073Z,20128
2018-06-27T04:59:52.210Z,20992
2018-06-27T05:00:18.352Z,21600
2018-06-27T05:00:44.499Z,22112
2018-06-27T05:01:10.635Z,22528
2018-06-27T05:01:36.852Z,22816
2018-06-27T05:02:02.945Z,22944
2018-06-27T05:02:29.074Z,23072
2018-06-27T05:02:55.212Z,22944
2018-06-27T05:03:21.351Z,22624
2018-06-27T05:03:47.494Z,22144
2018-06-27T05:04:13.637Z,21760
2018-06-27T05:04:39.799Z,22144
2018-06-27T05:05:05.958Z,22688
2018-06-27T05:05:32.125Z,23296
2018-06-27T05:05:58.272Z,23808
2018-06-27T05:06:24.440Z,23840
2018-06-27T05:06:50.580Z,23648
2018-06-27T05:07:16.724Z,24160
2018-06-27T05:07:42.889Z,24544
2018-06-27T05:08:09.034Z,24768
2018-06-27T05:08:35.226Z,25120
2018-06-27T05:09:01.604Z,24896
2018-06-27T05:09:27.927Z,24640
2018-06-27T05:09:54.225Z,24704
2018-06-27T05:10:20.918Z,24864
2018-06-27T05:10:47.049Z,24672
2018-06-27T05:11:13.195Z,24864
2018-06-27T05:11:39.390Z,24160
2018-06-27T05:12:05.518Z,23232
2018-06-27T05:12:31.656Z,22400
2018-06-27T05:12:57.827Z,21440
2018-06-27T05:13:23.971Z,20288
2018-06-27T05:13:50.135Z,19072
2018-06-27T05:14:16.271Z,17312
2018-06-27T05:14:42.440Z,15080
2018-06-27T05:15:08.576Z,12932
2018-06-27T05:15:34.767Z,11364
2018-06-27T05:16:01.016Z,10528
2018-06-27T05:16:27.084Z,10380
2018-06-27T05:16:53.221Z,10428
2018-06-27T05:17:19.397Z,10488
2018-06-27T05:17:45.526Z,10500
2018-06-27T05:18:11.727Z,10452
2018-06-27T05:18:37.866Z,10364
2018-06-27T05:19:04.010Z,10280
2018-06-27T05:19:30.143Z,10264
2018-06-27T05:19:56.288Z,10324
2018-06-27T05:20:22.449Z,10368
2018-06-27T05:20:48.599Z,10344
2018-06-27T05:21:14.733Z,10332
2018-06-27T05:21:40.890Z,10388
2018-06-27T05:22:07.023Z,10476
2018-06-27T05:22:33.195Z,10500
2018-06-27T05:22:59.330Z,10416
2018-06-27T05:23:25.472Z,10364
2018-06-27T05:23:51.609Z,10336
2018-06-27T05:24:17.748Z,10376
2018-06-27T05:24:43.898Z,10472
2018-06-27T05:25:10.055Z,10508
2018-06-27T05:25:36.220Z,10508
2018-06-27T05:26:02.395Z,10488
2018-06-27T05:26:28.528Z,10464
2018-06-27T05:26:54.725Z,10492
2018-06-27T05:27:20.942Z,10564
2018-06-27T05:27:46.989Z,10656
2018-06-27T05:28:13.172Z,10672
2018-06-27T05:28:39.313Z,10624
2018-06-27T05:29:05.455Z,10596
2018-06-27T05:29:31.611Z,10604
2018-06-27T05:29:57.779Z,10652
2018-06-27T05:30:23.925Z,10720
2018-06-27T05:30:50.063Z,10800
2018-06-27T05:31:16.198Z,10812
2018-06-27T05:31:42.342Z,10792
2018-06-27T05:32:08.504Z,10788
2018-06-27T05:32:34.663Z,10776
2018-06-27T05:33:00.810Z,10776
2018-06-27T05:33:26.992Z,10772
2018-06-27T05:33:53.140Z,10796
2018-06-27T05:34:19.234Z,10876
2018-06-27T05:34:45.368Z,10908
2018-06-27T05:35:11.504Z,10924
2018-06-27T05:35:37.641Z,10944
2018-06-27T05:36:03.805Z,10964
2018-06-27T05:36:29.949Z,10992
2018-06-27T05:36:56.104Z,11004
2018-06-27T05:37:22.242Z,10956
2018-06-27T05:37:48.408Z,10864
2018-06-27T05:38:14.547Z,10824
2018-06-27T05:38:40.688Z,10820
2018-06-27T05:39:06.823Z,10844
2018-06-27T05:39:33.025Z,10900
2018-06-27T05:39:59.162Z,10932
2018-06-27T05:40:25.300Z,10948
2018-06-27T05:40:51.440Z,10968
2018-06-27T05:41:17.575Z,10988
2018-06-27T05:41:43.710Z,11028
2018-06-27T05:42:09.857Z,11024
2018-06-27T05:42:35.991Z,11044
2018-06-27T05:43:02.130Z,11076
2018-06-27T05:43:28.266Z,10860
2018-06-27T05:43:54.437Z,11040
2018-06-27T05:44:20.576Z,11064
2018-06-27T05:44:46.711Z,11176
2018-06-27T05:45:12.851Z,11224
2018-06-27T05:45:38.988Z,11164
2018-06-27T05:46:05.131Z,10724
2018-06-27T05:46:31.270Z,10932
2018-06-27T05:46:57.410Z,11124
2018-06-27T05:47:23.549Z,11200
2018-06-27T05:47:49.688Z,11244
2018-06-27T05:48:15.851Z,11292
2018-06-27T05:48:41.990Z,11356
2018-06-27T05:49:08.139Z,11372
2018-06-27T05:49:34.321Z,11392
2018-06-27T05:50:00.488Z,11436
2018-06-27T05:50:26.635Z,11456
2018-06-27T05:50:52.777Z,11504
2018-06-27T05:51:18.967Z,11596
2018-06-27T05:51:45.106Z,11740
2018-06-27T05:52:11.262Z,11792
2018-06-27T05:52:37.397Z,11776
2018-06-27T05:53:03.566Z,11748
2018-06-27T05:53:29.702Z,11760
2018-06-27T05:53:55.860Z,11812
2018-06-27T05:54:22.008Z,11872
2018-06-27T05:54:48.176Z,11952
2018-06-27T05:55:14.310Z,12008
2018-06-27T05:55:40.449Z,12056
2018-06-27T05:56:06.590Z,12144
2018-06-27T05:56:32.730Z,12168
2018-06-27T05:56:58.871Z,12080
2018-06-27T05:57:25.008Z,11836
2018-06-27T05:57:51.142Z,11996
2018-06-27T05:58:17.350Z,12132
2018-06-27T05:58:43.415Z,12244
2018-06-27T05:59:09.550Z,12324
2018-06-27T05:59:35.695Z,12352
2018-06-27T06:00:01.831Z,12364
2018-06-27T06:00:27.974Z,12392
2018-06-27T06:00:54.114Z,12432
2018-06-27T06:01:20.246Z,12480
2018-06-27T06:01:46.397Z,12544
2018-06-27T06:02:12.568Z,12572
2018-06-27T06:02:38.717Z,12612
2018-06-27T06:03:04.862Z,12668
2018-06-27T06:03:31.004Z,12708